sensor_id;sensor_type;location;lat;lon;timestamp;temperature;humidity
57058;DHT22;55017;52.848;6.748;2023-07-09T00:01:52;23.20;79.90
57058;DHT22;55017;52.848;6.748;2023-07-09T00:04:18;22.70;81.50
57058;DHT22;55017;52.848;6.748;2023-07-09T00:06:44;22.40;82.60
57058;DHT22;55017;52.848;6.748;2023-07-09T00:09:28;22.30;82.90
57058;DHT22;55017;52.848;6.748;2023-07-09T00:11:54;22.30;83.50
57058;DHT22;55017;52.848;6.748;2023-07-09T00:14:20;22.20;84.50
57058;DHT22;55017;52.848;6.748;2023-07-09T00:16:46;22.90;81.50
57058;DHT22;55017;52.848;6.748;2023-07-09T00:19:17;22.50;82.90
57058;DHT22;55017;52.848;6.748;2023-07-09T00:21:45;22.30;83.90
57058;DHT22;55017;52.848;6.748;2023-07-09T00:24:11;22.20;84.50
57058;DHT22;55017;52.848;6.748;2023-07-09T00:26:38;22.10;85.50
57058;DHT22;55017;52.848;6.748;2023-07-09T00:29:11;22.20;85.90
57058;DHT22;55017;52.848;6.748;2023-07-09T00:31:38;21.90;85.40
57058;DHT22;55017;52.848;6.748;2023-07-09T00:34:08;21.90;86.60
57058;DHT22;55017;52.848;6.748;2023-07-09T00:36:34;21.90;86.50
57058;DHT22;55017;52.848;6.748;2023-07-09T00:39:00;21.90;85.60
57058;DHT22;55017;52.848;6.748;2023-07-09T00:41:35;21.90;85.20
57058;DHT22;55017;52.848;6.748;2023-07-09T00:44:23;21.90;85.40
57058;DHT22;55017;52.848;6.748;2023-07-09T00:49:31;21.80;85.70
57058;DHT22;55017;52.848;6.748;2023-07-09T00:52:01;21.90;85.40
57058;DHT22;55017;52.848;6.748;2023-07-09T00:54:37;21.90;85.70
57058;DHT22;55017;52.848;6.748;2023-07-09T00:57:11;21.90;85.40
57058;DHT22;55017;52.848;6.748;2023-07-09T00:59:38;22.60;82.30
57058;DHT22;55017;52.848;6.748;2023-07-09T01:02:06;22.20;84.00
57058;DHT22;55017;52.848;6.748;2023-07-09T01:04:32;22.00;84.30
57058;DHT22;55017;52.848;6.748;2023-07-09T01:06:58;21.90;84.20
57058;DHT22;55017;52.848;6.748;2023-07-09T01:09:25;21.90;84.20
57058;DHT22;55017;52.848;6.748;2023-07-09T01:11:51;21.80;84.10
57058;DHT22;55017;52.848;6.748;2023-07-09T01:14:23;21.80;84.20
57058;DHT22;55017;52.848;6.748;2023-07-09T01:17:02;21.90;83.70
57058;DHT22;55017;52.848;6.748;2023-07-09T01:19:36;22.50;80.00
57058;DHT22;55017;52.848;6.748;2023-07-09T01:22:08;22.20;81.60
57058;DHT22;55017;52.848;6.748;2023-07-09T01:25:00;21.80;82.00
57058;DHT22;55017;52.848;6.748;2023-07-09T01:27:43;21.80;83.60
57058;DHT22;55017;52.848;6.748;2023-07-09T01:33:07;21.70;83.00
57058;DHT22;55017;52.848;6.748;2023-07-09T01:35:37;21.60;82.80
57058;DHT22;55017;52.848;6.748;2023-07-09T01:38:02;21.50;83.70
57058;DHT22;55017;52.848;6.748;2023-07-09T01:40:31;21.70;83.50
57058;DHT22;55017;52.848;6.748;2023-07-09T01:42:58;21.60;83.40
57058;DHT22;55017;52.848;6.748;2023-07-09T01:45:24;21.60;83.60
57058;DHT22;55017;52.848;6.748;2023-07-09T01:47:50;21.40;83.90
57058;DHT22;55017;52.848;6.748;2023-07-09T01:50:16;21.50;84.60
57058;DHT22;55017;52.848;6.748;2023-07-09T01:52:42;21.40;84.20
57058;DHT22;55017;52.848;6.748;2023-07-09T01:55:11;21.40;84.70
57058;DHT22;55017;52.848;6.748;2023-07-09T01:57:37;21.40;84.80
57058;DHT22;55017;52.848;6.748;2023-07-09T02:00:08;21.30;85.20
57058;DHT22;55017;52.848;6.748;2023-07-09T02:02:37;21.30;85.90
57058;DHT22;55017;52.848;6.748;2023-07-09T02:05:10;21.20;86.10
57058;DHT22;55017;52.848;6.748;2023-07-09T02:07:36;21.30;86.50
57058;DHT22;55017;52.848;6.748;2023-07-09T02:10:02;22.00;83.10
57058;DHT22;55017;52.848;6.748;2023-07-09T02:12:28;21.50;84.60
57058;DHT22;55017;52.848;6.748;2023-07-09T02:14:53;21.40;85.50
57058;DHT22;55017;52.848;6.748;2023-07-09T02:17:19;22.00;83.80
57058;DHT22;55017;52.848;6.748;2023-07-09T02:19:45;21.50;85.30
57058;DHT22;55017;52.848;6.748;2023-07-09T02:22:11;22.00;82.70
57058;DHT22;55017;52.848;6.748;2023-07-09T02:24:37;21.60;84.40
57058;DHT22;55017;52.848;6.748;2023-07-09T02:27:05;21.30;85.50
57058;DHT22;55017;52.848;6.748;2023-07-09T02:29:32;22.00;83.00
57058;DHT22;55017;52.848;6.748;2023-07-09T02:31:58;21.50;85.60
57058;DHT22;55017;52.848;6.748;2023-07-09T02:34:25;21.10;87.90
57058;DHT22;55017;52.848;6.748;2023-07-09T02:36:52;21.70;86.80
57058;DHT22;55017;52.848;6.748;2023-07-09T02:39:18;22.00;86.30
57058;DHT22;55017;52.848;6.748;2023-07-09T02:41:44;21.50;88.60
57058;DHT22;55017;52.848;6.748;2023-07-09T02:44:10;21.00;90.20
57058;DHT22;55017;52.848;6.748;2023-07-09T02:46:36;20.80;91.00
57058;DHT22;55017;52.848;6.748;2023-07-09T02:49:04;20.70;91.00
57058;DHT22;55017;52.848;6.748;2023-07-09T02:51:30;20.60;91.10
57058;DHT22;55017;52.848;6.748;2023-07-09T02:53:57;20.60;91.40
57058;DHT22;55017;52.848;6.748;2023-07-09T02:56:23;20.50;91.60
57058;DHT22;55017;52.848;6.748;2023-07-09T02:58:52;20.40;91.80
57058;DHT22;55017;52.848;6.748;2023-07-09T03:01:18;20.30;91.90
57058;DHT22;55017;52.848;6.748;2023-07-09T03:03:47;20.30;91.90
57058;DHT22;55017;52.848;6.748;2023-07-09T03:06:12;20.20;92.10
57058;DHT22;55017;52.848;6.748;2023-07-09T03:08:38;20.10;92.40
57058;DHT22;55017;52.848;6.748;2023-07-09T03:11:11;20.10;92.80
57058;DHT22;55017;52.848;6.748;2023-07-09T03:13:37;20.20;92.80
57058;DHT22;55017;52.848;6.748;2023-07-09T03:16:02;21.00;91.30
57058;DHT22;55017;52.848;6.748;2023-07-09T03:18:28;21.30;90.30
57058;DHT22;55017;52.848;6.748;2023-07-09T03:20:54;20.60;91.50
57058;DHT22;55017;52.848;6.748;2023-07-09T03:23:19;20.40;92.40
57058;DHT22;55017;52.848;6.748;2023-07-09T03:25:45;20.30;92.90
57058;DHT22;55017;52.848;6.748;2023-07-09T03:28:11;20.20;93.30
57058;DHT22;55017;52.848;6.748;2023-07-09T03:30:41;20.10;93.10
57058;DHT22;55017;52.848;6.748;2023-07-09T03:33:07;20.10;93.80
57058;DHT22;55017;52.848;6.748;2023-07-09T03:35:32;20.00;93.80
57058;DHT22;55017;52.848;6.748;2023-07-09T03:38:00;20.10;94.10
57058;DHT22;55017;52.848;6.748;2023-07-09T03:40:26;20.00;94.30
57058;DHT22;55017;52.848;6.748;2023-07-09T03:42:51;20.10;94.50
57058;DHT22;55017;52.848;6.748;2023-07-09T03:45:17;20.10;94.70
57058;DHT22;55017;52.848;6.748;2023-07-09T03:47:42;20.00;94.50
57058;DHT22;55017;52.848;6.748;2023-07-09T03:50:09;20.80;92.50
57058;DHT22;55017;52.848;6.748;2023-07-09T03:52:35;21.20;91.10
57058;DHT22;55017;52.848;6.748;2023-07-09T03:55:01;20.80;91.90
57058;DHT22;55017;52.848;6.748;2023-07-09T03:57:32;20.50;92.40
57058;DHT22;55017;52.848;6.748;2023-07-09T03:59:58;20.30;93.30
57058;DHT22;55017;52.848;6.748;2023-07-09T04:02:24;20.40;93.70
57058;DHT22;55017;52.848;6.748;2023-07-09T04:04:50;20.40;94.10
57058;DHT22;55017;52.848;6.748;2023-07-09T04:07:16;21.20;92.70
57058;DHT22;55017;52.848;6.748;2023-07-09T04:09:41;20.80;93.00
57058;DHT22;55017;52.848;6.748;2023-07-09T04:12:09;20.60;93.50
57058;DHT22;55017;52.848;6.748;2023-07-09T04:14:34;20.50;94.10
57058;DHT22;55017;52.848;6.748;2023-07-09T04:17:00;20.50;94.60
57058;DHT22;55017;52.848;6.748;2023-07-09T04:19:25;20.50;94.20
57058;DHT22;55017;52.848;6.748;2023-07-09T04:21:51;20.50;93.60
57058;DHT22;55017;52.848;6.748;2023-07-09T04:24:18;21.30;91.40
57058;DHT22;55017;52.848;6.748;2023-07-09T04:26:44;21.80;90.00
57058;DHT22;55017;52.848;6.748;2023-07-09T04:29:09;22.00;90.30
57058;DHT22;55017;52.848;6.748;2023-07-09T04:31:35;21.50;91.30
57058;DHT22;55017;52.848;6.748;2023-07-09T04:34:01;21.30;92.40
57058;DHT22;55017;52.848;6.748;2023-07-09T04:36:27;21.30;92.30
57058;DHT22;55017;52.848;6.748;2023-07-09T04:38:52;21.20;92.40
57058;DHT22;55017;52.848;6.748;2023-07-09T04:41:18;21.30;92.30
57058;DHT22;55017;52.848;6.748;2023-07-09T04:43:44;21.30;92.40
57058;DHT22;55017;52.848;6.748;2023-07-09T04:46:09;21.40;92.10
57058;DHT22;55017;52.848;6.748;2023-07-09T04:48:35;21.40;92.30
57058;DHT22;55017;52.848;6.748;2023-07-09T04:51:01;21.40;92.80
57058;DHT22;55017;52.848;6.748;2023-07-09T04:53:27;21.40;93.00
57058;DHT22;55017;52.848;6.748;2023-07-09T04:55:52;21.40;92.50
57058;DHT22;55017;52.848;6.748;2023-07-09T04:58:18;21.50;92.70
57058;DHT22;55017;52.848;6.748;2023-07-09T05:00:44;21.60;92.70
57058;DHT22;55017;52.848;6.748;2023-07-09T05:03:11;21.70;92.40
57058;DHT22;55017;52.848;6.748;2023-07-09T05:05:43;22.40;90.30
57058;DHT22;55017;52.848;6.748;2023-07-09T05:08:08;22.80;88.30
57058;DHT22;55017;52.848;6.748;2023-07-09T05:10:34;22.50;90.10
57058;DHT22;55017;52.848;6.748;2023-07-09T05:13:05;22.30;90.40
57058;DHT22;55017;52.848;6.748;2023-07-09T05:15:31;23.10;87.80
57058;DHT22;55017;52.848;6.748;2023-07-09T05:17:56;22.80;88.80
57058;DHT22;55017;52.848;6.748;2023-07-09T05:20:22;22.80;90.30
57058;DHT22;55017;52.848;6.748;2023-07-09T05:22:48;22.80;90.70
57058;DHT22;55017;52.848;6.748;2023-07-09T05:25:13;22.70;91.20
57058;DHT22;55017;52.848;6.748;2023-07-09T05:27:39;23.40;86.40
57058;DHT22;55017;52.848;6.748;2023-07-09T05:30:05;23.20;88.60
57058;DHT22;55017;52.848;6.748;2023-07-09T05:32:31;23.10;89.60
57058;DHT22;55017;52.848;6.748;2023-07-09T05:34:56;23.10;89.80
57058;DHT22;55017;52.848;6.748;2023-07-09T05:37:22;23.00;89.80
57058;DHT22;55017;52.848;6.748;2023-07-09T05:39:48;23.00;90.30
57058;DHT22;55017;52.848;6.748;2023-07-09T05:42:13;23.00;90.00
57058;DHT22;55017;52.848;6.748;2023-07-09T05:44:39;23.10;90.30
57058;DHT22;55017;52.848;6.748;2023-07-09T05:47:04;23.10;90.40
57058;DHT22;55017;52.848;6.748;2023-07-09T05:49:30;23.10;90.10
57058;DHT22;55017;52.848;6.748;2023-07-09T05:51:55;23.00;90.20
57058;DHT22;55017;52.848;6.748;2023-07-09T05:54:21;23.10;90.70
57058;DHT22;55017;52.848;6.748;2023-07-09T05:56:47;23.10;90.80
57058;DHT22;55017;52.848;6.748;2023-07-09T05:59:12;23.20;91.10
57058;DHT22;55017;52.848;6.748;2023-07-09T06:01:38;23.30;90.50
57058;DHT22;55017;52.848;6.748;2023-07-09T06:04:03;23.30;90.10
57058;DHT22;55017;52.848;6.748;2023-07-09T06:06:30;23.10;90.40
57058;DHT22;55017;52.848;6.748;2023-07-09T06:08:56;23.30;91.30
57058;DHT22;55017;52.848;6.748;2023-07-09T06:11:22;23.30;91.20
57058;DHT22;55017;52.848;6.748;2023-07-09T06:13:49;23.40;91.50
57058;DHT22;55017;52.848;6.748;2023-07-09T06:16:14;23.30;91.70
57058;DHT22;55017;52.848;6.748;2023-07-09T06:18:40;23.90;92.20
57058;DHT22;55017;52.848;6.748;2023-07-09T06:21:06;23.80;92.90
57058;DHT22;55017;52.848;6.748;2023-07-09T06:23:32;23.60;93.10
57058;DHT22;55017;52.848;6.748;2023-07-09T06:25:58;23.60;93.00
57058;DHT22;55017;52.848;6.748;2023-07-09T06:28:26;23.60;92.30
57058;DHT22;55017;52.848;6.748;2023-07-09T06:30:54;23.70;91.60
57058;DHT22;55017;52.848;6.748;2023-07-09T06:33:20;23.70;91.20
57058;DHT22;55017;52.848;6.748;2023-07-09T06:35:47;24.40;88.10
57058;DHT22;55017;52.848;6.748;2023-07-09T06:38:13;24.20;89.10
57058;DHT22;55017;52.848;6.748;2023-07-09T06:40:39;24.10;90.00
57058;DHT22;55017;52.848;6.748;2023-07-09T06:43:04;24.20;90.30
57058;DHT22;55017;52.848;6.748;2023-07-09T06:45:30;24.20;90.00
57058;DHT22;55017;52.848;6.748;2023-07-09T06:47:57;24.30;89.70
57058;DHT22;55017;52.848;6.748;2023-07-09T06:50:22;24.40;89.30
57058;DHT22;55017;52.848;6.748;2023-07-09T06:52:48;25.00;86.40
57058;DHT22;55017;52.848;6.748;2023-07-09T06:55:14;25.30;86.30
57058;DHT22;55017;52.848;6.748;2023-07-09T06:57:39;25.10;86.90
57058;DHT22;55017;52.848;6.748;2023-07-09T07:00:05;25.10;87.30
57058;DHT22;55017;52.848;6.748;2023-07-09T07:02:32;25.50;86.00
57058;DHT22;55017;52.848;6.748;2023-07-09T07:04:57;25.30;86.60
57058;DHT22;55017;52.848;6.748;2023-07-09T07:07:23;25.10;87.50
57058;DHT22;55017;52.848;6.748;2023-07-09T07:09:48;25.30;87.50
57058;DHT22;55017;52.848;6.748;2023-07-09T07:12:26;25.40;86.50
57058;DHT22;55017;52.848;6.748;2023-07-09T07:14:52;25.50;86.30
57058;DHT22;55017;52.848;6.748;2023-07-09T07:17:18;25.50;86.00
57058;DHT22;55017;52.848;6.748;2023-07-09T07:19:43;25.70;86.70
57058;DHT22;55017;52.848;6.748;2023-07-09T07:22:09;25.80;85.50
57058;DHT22;55017;52.848;6.748;2023-07-09T07:24:34;26.00;86.10
57058;DHT22;55017;52.848;6.748;2023-07-09T07:27:00;26.10;86.10
57058;DHT22;55017;52.848;6.748;2023-07-09T07:29:25;26.30;86.40
57058;DHT22;55017;52.848;6.748;2023-07-09T07:31:51;26.40;85.20
57058;DHT22;55017;52.848;6.748;2023-07-09T07:34:16;26.40;84.50
57058;DHT22;55017;52.848;6.748;2023-07-09T07:36:42;26.50;84.30
57058;DHT22;55017;52.848;6.748;2023-07-09T07:39:07;26.70;84.10
57058;DHT22;55017;52.848;6.748;2023-07-09T07:41:33;26.70;84.20
57058;DHT22;55017;52.848;6.748;2023-07-09T07:43:58;26.80;84.10
57058;DHT22;55017;52.848;6.748;2023-07-09T07:46:24;27.40;80.60
57058;DHT22;55017;52.848;6.748;2023-07-09T07:48:50;27.70;79.50
57058;DHT22;55017;52.848;6.748;2023-07-09T07:51:16;27.50;80.70
57058;DHT22;55017;52.848;6.748;2023-07-09T07:53:41;27.40;81.00
57058;DHT22;55017;52.848;6.748;2023-07-09T07:56:07;27.60;81.30
57058;DHT22;55017;52.848;6.748;2023-07-09T07:58:34;27.70;81.80
57058;DHT22;55017;52.848;6.748;2023-07-09T08:00:59;28.10;81.40
57058;DHT22;55017;52.848;6.748;2023-07-09T08:03:25;28.10;81.50
57058;DHT22;55017;52.848;6.748;2023-07-09T08:05:51;28.10;80.20
57058;DHT22;55017;52.848;6.748;2023-07-09T08:08:17;28.30;79.50
57058;DHT22;55017;52.848;6.748;2023-07-09T08:10:43;28.50;79.90
57058;DHT22;55017;52.848;6.748;2023-07-09T08:13:08;29.00;76.10
57058;DHT22;55017;52.848;6.748;2023-07-09T08:15:34;29.30;75.10
57058;DHT22;55017;52.848;6.748;2023-07-09T08:18:00;29.20;75.00
57058;DHT22;55017;52.848;6.748;2023-07-09T08:20:25;29.10;75.60
57058;DHT22;55017;52.848;6.748;2023-07-09T08:22:51;29.00;75.90
57058;DHT22;55017;52.848;6.748;2023-07-09T08:25:17;29.00;75.10
57058;DHT22;55017;52.848;6.748;2023-07-09T08:27:42;29.00;75.70
57058;DHT22;55017;52.848;6.748;2023-07-09T08:30:08;29.30;75.50
57058;DHT22;55017;52.848;6.748;2023-07-09T08:32:34;29.40;76.20
57058;DHT22;55017;52.848;6.748;2023-07-09T08:35:00;29.50;74.20
57058;DHT22;55017;52.848;6.748;2023-07-09T08:37:25;30.10;72.60
57058;DHT22;55017;52.848;6.748;2023-07-09T08:39:51;30.00;72.20
57058;DHT22;55017;52.848;6.748;2023-07-09T08:42:46;29.80;71.30
57058;DHT22;55017;52.848;6.748;2023-07-09T08:48:02;30.00;71.60
57058;DHT22;55017;52.848;6.748;2023-07-09T08:50:36;30.10;70.20
57058;DHT22;55017;52.848;6.748;2023-07-09T08:53:04;30.20;68.80
57058;DHT22;55017;52.848;6.748;2023-07-09T08:55:31;30.60;65.30
57058;DHT22;55017;52.848;6.748;2023-07-09T08:58:25;30.60;67.20
57058;DHT22;55017;52.848;6.748;2023-07-09T09:00:56;30.60;67.30
57058;DHT22;55017;52.848;6.748;2023-07-09T09:03:39;30.70;68.00
57058;DHT22;55017;52.848;6.748;2023-07-09T09:11:20;31.10;67.30
57058;DHT22;55017;52.848;6.748;2023-07-09T09:13:50;31.10;67.20
57058;DHT22;55017;52.848;6.748;2023-07-09T09:16:32;31.20;67.00
57058;DHT22;55017;52.848;6.748;2023-07-09T09:18:59;31.40;65.50
57058;DHT22;55017;52.848;6.748;2023-07-09T09:21:33;31.50;64.80
57058;DHT22;55017;52.848;6.748;2023-07-09T09:24:22;32.00;62.70
57058;DHT22;55017;52.848;6.748;2023-07-09T09:26:53;31.70;62.90
57058;DHT22;55017;52.848;6.748;2023-07-09T09:29:23;31.80;63.80
57058;DHT22;55017;52.848;6.748;2023-07-09T09:31:53;32.20;62.60
57058;DHT22;55017;52.848;6.748;2023-07-09T09:34:21;32.20;63.40
57058;DHT22;55017;52.848;6.748;2023-07-09T09:36:47;32.20;61.70
57058;DHT22;55017;52.848;6.748;2023-07-09T09:39:13;32.30;61.20
57058;DHT22;55017;52.848;6.748;2023-07-09T09:41:39;32.40;61.00
57058;DHT22;55017;52.848;6.748;2023-07-09T09:44:05;32.90;57.10
57058;DHT22;55017;52.848;6.748;2023-07-09T09:46:32;32.70;56.10
57058;DHT22;55017;52.848;6.748;2023-07-09T09:49:02;33.00;53.70
57058;DHT22;55017;52.848;6.748;2023-07-09T09:51:34;32.90;54.80
57058;DHT22;55017;52.848;6.748;2023-07-09T09:54:01;33.30;54.30
57058;DHT22;55017;52.848;6.748;2023-07-09T09:56:30;33.10;55.20
57058;DHT22;55017;52.848;6.748;2023-07-09T09:58:57;33.40;55.00
57058;DHT22;55017;52.848;6.748;2023-07-09T10:01:31;33.30;55.30
57058;DHT22;55017;52.848;6.748;2023-07-09T10:03:58;33.20;54.60
57058;DHT22;55017;52.848;6.748;2023-07-09T10:11:46;33.20;55.60
57058;DHT22;55017;52.848;6.748;2023-07-09T10:16:53;33.90;53.90
57058;DHT22;55017;52.848;6.748;2023-07-09T10:19:29;33.80;53.30
57058;DHT22;55017;52.848;6.748;2023-07-09T10:25:24;33.80;54.60
57058;DHT22;55017;52.848;6.748;2023-07-09T10:33:11;34.60;52.90
57058;DHT22;55017;52.848;6.748;2023-07-09T10:38:34;34.60;51.00
57058;DHT22;55017;52.848;6.748;2023-07-09T10:41:04;34.30;51.90
57058;DHT22;55017;52.848;6.748;2023-07-09T10:43:57;34.60;51.10
57058;DHT22;55017;52.848;6.748;2023-07-09T10:46:27;34.70;52.00
57058;DHT22;55017;52.848;6.748;2023-07-09T10:48:53;34.60;52.90
57058;DHT22;55017;52.848;6.748;2023-07-09T10:51:40;34.40;53.30
57058;DHT22;55017;52.848;6.748;2023-07-09T10:54:33;34.50;53.80
57058;DHT22;55017;52.848;6.748;2023-07-09T10:57:17;34.80;51.60
57058;DHT22;55017;52.848;6.748;2023-07-09T10:59:46;34.70;52.00
57058;DHT22;55017;52.848;6.748;2023-07-09T11:02:30;34.80;53.10
57058;DHT22;55017;52.848;6.748;2023-07-09T11:05:03;35.20;50.30
57058;DHT22;55017;52.848;6.748;2023-07-09T11:09:58;35.00;50.40
57058;DHT22;55017;52.848;6.748;2023-07-09T11:12:27;34.90;50.30
57058;DHT22;55017;52.848;6.748;2023-07-09T11:15:15;35.00;51.20
57058;DHT22;55017;52.848;6.748;2023-07-09T11:17:45;35.00;51.50
57058;DHT22;55017;52.848;6.748;2023-07-09T11:23:05;34.60;51.40
57058;DHT22;55017;52.848;6.748;2023-07-09T11:25:40;34.60;51.50
57058;DHT22;55017;52.848;6.748;2023-07-09T11:28:07;35.10;50.30
57058;DHT22;55017;52.848;6.748;2023-07-09T11:30:33;34.80;51.10
57058;DHT22;55017;52.848;6.748;2023-07-09T11:33:26;35.30;51.70
57058;DHT22;55017;52.848;6.748;2023-07-09T11:35:54;35.60;52.50
57058;DHT22;55017;52.848;6.748;2023-07-09T11:38:39;35.70;52.10
57058;DHT22;55017;52.848;6.748;2023-07-09T11:41:22;35.60;51.80
57058;DHT22;55017;52.848;6.748;2023-07-09T11:43:49;35.60;52.70
57058;DHT22;55017;52.848;6.748;2023-07-09T11:46:18;35.60;52.10
57058;DHT22;55017;52.848;6.748;2023-07-09T11:48:48;35.60;52.70
57058;DHT22;55017;52.848;6.748;2023-07-09T11:51:17;35.50;52.30
57058;DHT22;55017;52.848;6.748;2023-07-09T11:53:53;35.70;51.90
57058;DHT22;55017;52.848;6.748;2023-07-09T11:56:23;36.30;51.40
57058;DHT22;55017;52.848;6.748;2023-07-09T11:58:52;36.30;51.20
57058;DHT22;55017;52.848;6.748;2023-07-09T12:01:28;36.30;49.80
57058;DHT22;55017;52.848;6.748;2023-07-09T12:03:56;36.40;48.60
57058;DHT22;55017;52.848;6.748;2023-07-09T12:06:30;36.20;48.50
57058;DHT22;55017;52.848;6.748;2023-07-09T12:08:57;36.60;48.30
57058;DHT22;55017;52.848;6.748;2023-07-09T12:11:26;36.20;48.20
57058;DHT22;55017;52.848;6.748;2023-07-09T12:13:52;36.60;47.70
57058;DHT22;55017;52.848;6.748;2023-07-09T12:16:55;36.70;47.90
57058;DHT22;55017;52.848;6.748;2023-07-09T12:19:22;36.60;47.80
57058;DHT22;55017;52.848;6.748;2023-07-09T12:21:50;36.50;48.00
57058;DHT22;55017;52.848;6.748;2023-07-09T12:26:48;36.70;49.60
57058;DHT22;55017;52.848;6.748;2023-07-09T12:29:15;36.40;47.50
57058;DHT22;55017;52.848;6.748;2023-07-09T12:31:40;36.40;47.90
57058;DHT22;55017;52.848;6.748;2023-07-09T12:34:10;36.40;48.30
57058;DHT22;55017;52.848;6.748;2023-07-09T12:36:37;36.50;48.10
57058;DHT22;55017;52.848;6.748;2023-07-09T12:39:03;36.70;48.70
57058;DHT22;55017;52.848;6.748;2023-07-09T12:41:30;36.80;48.70
57058;DHT22;55017;52.848;6.748;2023-07-09T12:44:00;36.70;47.80
57058;DHT22;55017;52.848;6.748;2023-07-09T12:46:25;36.50;48.00
57058;DHT22;55017;52.848;6.748;2023-07-09T12:48:54;36.30;47.40
57058;DHT22;55017;52.848;6.748;2023-07-09T12:51:23;36.20;48.00
57058;DHT22;55017;52.848;6.748;2023-07-09T12:54:00;36.20;47.70
57058;DHT22;55017;52.848;6.748;2023-07-09T12:56:26;36.20;47.30
57058;DHT22;55017;52.848;6.748;2023-07-09T12:58:56;36.70;47.40
57058;DHT22;55017;52.848;6.748;2023-07-09T13:01:23;36.60;47.50
57058;DHT22;55017;52.848;6.748;2023-07-09T13:03:55;36.70;48.70
57058;DHT22;55017;52.848;6.748;2023-07-09T13:06:27;36.60;47.70
57058;DHT22;55017;52.848;6.748;2023-07-09T13:09:00;36.70;46.30
57058;DHT22;55017;52.848;6.748;2023-07-09T13:11:33;36.20;48.30
57058;DHT22;55017;52.848;6.748;2023-07-09T13:14:03;35.80;48.00
57058;DHT22;55017;52.848;6.748;2023-07-09T13:16:29;35.90;47.70
57058;DHT22;55017;52.848;6.748;2023-07-09T13:18:54;36.00;46.90
57058;DHT22;55017;52.848;6.748;2023-07-09T13:21:21;35.40;48.30
57058;DHT22;55017;52.848;6.748;2023-07-09T13:23:47;34.90;49.30
57058;DHT22;55017;52.848;6.748;2023-07-09T13:26:14;34.60;49.80
57058;DHT22;55017;52.848;6.748;2023-07-09T13:28:40;34.40;49.80
57058;DHT22;55017;52.848;6.748;2023-07-09T13:31:13;34.10;49.60
57058;DHT22;55017;52.848;6.748;2023-07-09T13:33:41;34.50;49.80
57058;DHT22;55017;52.848;6.748;2023-07-09T13:36:06;34.40;51.20
57058;DHT22;55017;52.848;6.748;2023-07-09T13:38:32;33.80;51.80
57058;DHT22;55017;52.848;6.748;2023-07-09T13:41:01;33.40;52.40
57058;DHT22;55017;52.848;6.748;2023-07-09T13:45:54;33.60;53.60
57058;DHT22;55017;52.848;6.748;2023-07-09T13:48:22;32.90;52.10
57058;DHT22;55017;52.848;6.748;2023-07-09T13:50:50;32.80;54.50
57058;DHT22;55017;52.848;6.748;2023-07-09T13:53:20;32.60;54.60
57058;DHT22;55017;52.848;6.748;2023-07-09T13:55:46;32.50;55.40
57058;DHT22;55017;52.848;6.748;2023-07-09T13:58:14;32.40;55.90
57058;DHT22;55017;52.848;6.748;2023-07-09T14:00:40;32.30;56.30
57058;DHT22;55017;52.848;6.748;2023-07-09T14:03:14;32.10;57.90
57058;DHT22;55017;52.848;6.748;2023-07-09T14:05:40;31.90;57.50
57058;DHT22;55017;52.848;6.748;2023-07-09T14:08:08;31.90;57.60
57058;DHT22;55017;52.848;6.748;2023-07-09T14:10:34;31.80;59.40
57058;DHT22;55017;52.848;6.748;2023-07-09T14:13:00;31.80;59.30
57058;DHT22;55017;52.848;6.748;2023-07-09T14:15:28;31.70;58.30
57058;DHT22;55017;52.848;6.748;2023-07-09T14:17:54;31.70;56.90
57058;DHT22;55017;52.848;6.748;2023-07-09T14:20:22;31.70;56.60
57058;DHT22;55017;52.848;6.748;2023-07-09T14:22:49;31.60;56.20
57058;DHT22;55017;52.848;6.748;2023-07-09T14:25:20;31.50;56.60
57058;DHT22;55017;52.848;6.748;2023-07-09T14:27:46;31.50;58.30
57058;DHT22;55017;52.848;6.748;2023-07-09T14:30:20;31.50;57.80
57058;DHT22;55017;52.848;6.748;2023-07-09T14:32:48;31.40;58.30
57058;DHT22;55017;52.848;6.748;2023-07-09T14:35:17;31.40;59.10
57058;DHT22;55017;52.848;6.748;2023-07-09T14:37:44;31.90;56.90
57058;DHT22;55017;52.848;6.748;2023-07-09T14:40:10;31.50;58.30
57058;DHT22;55017;52.848;6.748;2023-07-09T14:42:37;31.80;57.40
57058;DHT22;55017;52.848;6.748;2023-07-09T14:45:05;31.40;58.70
57058;DHT22;55017;52.848;6.748;2023-07-09T14:47:31;31.70;59.50
57058;DHT22;55017;52.848;6.748;2023-07-09T14:49:56;31.20;60.90
57058;DHT22;55017;52.848;6.748;2023-07-09T14:52:22;31.10;60.30
57058;DHT22;55017;52.848;6.748;2023-07-09T14:54:48;31.50;61.40
57058;DHT22;55017;52.848;6.748;2023-07-09T14:59:44;30.80;63.40
57058;DHT22;55017;52.848;6.748;2023-07-09T15:02:39;30.60;65.10
57058;DHT22;55017;52.848;6.748;2023-07-09T15:07:42;30.60;66.20
57058;DHT22;55017;52.848;6.748;2023-07-09T15:10:12;30.20;67.60
57058;DHT22;55017;52.848;6.748;2023-07-09T15:12:38;30.00;67.70
57058;DHT22;55017;52.848;6.748;2023-07-09T15:15:36;29.90;68.50
57058;DHT22;55017;52.848;6.748;2023-07-09T15:18:11;29.70;71.10
57058;DHT22;55017;52.848;6.748;2023-07-09T15:20:37;29.60;71.80
57058;DHT22;55017;52.848;6.748;2023-07-09T15:23:03;29.30;74.00
57058;DHT22;55017;52.848;6.748;2023-07-09T15:25:30;29.90;72.90
57058;DHT22;55017;52.848;6.748;2023-07-09T15:27:59;29.20;73.80
57058;DHT22;55017;52.848;6.748;2023-07-09T15:30:27;28.60;75.90
57058;DHT22;55017;52.848;6.748;2023-07-09T15:32:54;28.20;78.50
57058;DHT22;55017;52.848;6.748;2023-07-09T15:35:21;27.70;80.20
57058;DHT22;55017;52.848;6.748;2023-07-09T15:37:47;27.40;79.70
57058;DHT22;55017;52.848;6.748;2023-07-09T15:40:23;27.20;79.30
57058;DHT22;55017;52.848;6.748;2023-07-09T15:42:51;27.00;78.40
57058;DHT22;55017;52.848;6.748;2023-07-09T15:45:18;26.90;78.40
57058;DHT22;55017;52.848;6.748;2023-07-09T15:47:45;26.60;78.10
57058;DHT22;55017;52.848;6.748;2023-07-09T15:50:21;26.40;78.30
57058;DHT22;55017;52.848;6.748;2023-07-09T15:52:49;26.20;77.50
57058;DHT22;55017;52.848;6.748;2023-07-09T15:55:26;25.90;78.30
57058;DHT22;55017;52.848;6.748;2023-07-09T15:57:53;25.90;77.60
57058;DHT22;55017;52.848;6.748;2023-07-09T16:00:27;25.70;77.60
57058;DHT22;55017;52.848;6.748;2023-07-09T16:02:54;25.60;77.20
57058;DHT22;55017;52.848;6.748;2023-07-09T16:05:25;25.30;77.20
57058;DHT22;55017;52.848;6.748;2023-07-09T16:07:53;26.10;75.10
57058;DHT22;55017;52.848;6.748;2023-07-09T16:10:20;25.50;77.30
57058;DHT22;55017;52.848;6.748;2023-07-09T16:12:47;25.20;78.60
57058;DHT22;55017;52.848;6.748;2023-07-09T16:15:15;25.10;80.00
57058;DHT22;55017;52.848;6.748;2023-07-09T16:17:42;24.80;81.10
57058;DHT22;55017;52.848;6.748;2023-07-09T16:20:13;25.60;79.80
57058;DHT22;55017;52.848;6.748;2023-07-09T16:22:40;25.00;81.60
57058;DHT22;55017;52.848;6.748;2023-07-09T16:25:18;24.70;83.00
57058;DHT22;55017;52.848;6.748;2023-07-09T16:27:45;24.50;83.60